createdAt,value
2018-04-19T00:00:16.001Z,62.00
2018-04-19T00:02:44.695Z,62.20
2018-04-19T00:05:13.383Z,63.10
2018-04-19T00:07:41.584Z,63.00
2018-04-19T00:10:09.966Z,62.70
2018-04-19T00:12:38.953Z,63.10
2018-04-19T00:15:07.924Z,63.50
2018-04-19T00:17:36.151Z,63.50
2018-04-19T00:20:04.440Z,63.90
2018-04-19T00:22:33.599Z,64.20
2018-04-19T00:25:02.983Z,64.60
2018-04-19T00:27:31.176Z,64.50
2018-04-19T00:30:00.144Z,65.90
2018-04-19T00:32:28.372Z,65.90
2018-04-19T00:34:57.054Z,66.30
2018-04-19T00:37:25.291Z,66.30
2018-04-19T00:39:53.501Z,66.80
2018-04-19T00:42:22.683Z,66.80
2018-04-19T00:44:51.814Z,67.30
2018-04-19T00:47:20.012Z,67.30
2018-04-19T00:49:48.523Z,67.90
2018-04-19T00:52:16.735Z,68.60
2018-04-19T00:54:45.280Z,69.20
2018-04-19T00:57:13.573Z,70.00
2018-04-19T00:59:42.868Z,71.40
2018-04-19T01:02:11.081Z,70.70
2018-04-19T01:04:39.615Z,71.60
2018-04-19T01:07:07.812Z,72.40
2018-04-19T01:09:36.371Z,72.50
2018-04-19T01:12:04.576Z,72.40
2018-04-19T01:14:32.782Z,73.00
2018-04-19T01:17:00.993Z,72.30
2018-04-19T01:19:29.696Z,72.60
2018-04-19T01:21:58.206Z,72.90
2018-04-19T01:24:27.468Z,75.60
2018-04-19T01:26:55.773Z,75.50
2018-04-19T01:29:24.736Z,76.70
2018-04-19T01:31:52.932Z,76.70
2018-04-19T01:34:21.144Z,76.70
2018-04-19T01:36:49.343Z,77.40
2018-04-19T01:39:17.549Z,78.20
2018-04-19T01:41:47.072Z,78.00
2018-04-19T01:44:15.719Z,78.20
2018-04-19T01:46:43.934Z,78.20
2018-04-19T01:49:12.127Z,77.70
2018-04-19T01:51:40.339Z,79.30
2018-04-19T01:54:08.933Z,79.70
2018-04-19T01:56:42.084Z,79.10
2018-04-19T01:59:10.729Z,79.10
2018-04-19T02:01:38.929Z,79.80
2018-04-19T02:04:08.508Z,79.50
2018-04-19T02:06:36.699Z,79.40
2018-04-19T02:09:06.154Z,80.10
2018-04-19T02:11:34.362Z,80.00
2018-04-19T02:14:02.547Z,80.80
2018-04-19T02:16:30.995Z,80.30
2018-04-19T02:18:59.197Z,80.60
2018-04-19T02:21:27.409Z,81.40
2018-04-19T02:23:56.156Z,81.50
2018-04-19T02:26:24.531Z,80.90
2018-04-19T02:28:53.083Z,80.70
2018-04-19T02:31:21.285Z,81.30
2018-04-19T02:33:49.493Z,80.30
2018-04-19T02:36:18.472Z,81.30
2018-04-19T02:38:46.674Z,80.60
2018-04-19T02:41:15.952Z,80.60
2018-04-19T02:43:44.224Z,80.60
2018-04-19T02:46:12.427Z,80.50
2018-04-19T02:48:40.624Z,80.70
2018-04-19T02:51:08.844Z,80.10
2018-04-19T02:53:39.601Z,80.40
2018-04-19T02:56:08.849Z,80.30
2018-04-19T02:58:37.053Z,80.30
2018-04-19T03:01:05.597Z,79.80
2018-04-19T03:03:34.253Z,80.50
2018-04-19T03:06:02.448Z,81.30
2018-04-19T03:08:31.140Z,81.80
2018-04-19T03:10:59.343Z,82.40
2018-04-19T03:13:33.252Z,83.20
2018-04-19T03:16:01.444Z,83.30
2018-04-19T03:18:29.639Z,83.30
2018-04-19T03:20:57.860Z,83.70
2018-04-19T03:23:26.400Z,83.90
2018-04-19T03:25:54.602Z,83.90
2018-04-19T03:28:23.855Z,84.50
2018-04-19T03:30:52.371Z,84.40
2018-04-19T03:33:21.336Z,85.70
2018-04-19T03:35:49.720Z,85.60
2018-04-19T03:38:18.525Z,85.30
2018-04-19T03:40:47.141Z,84.90
2018-04-19T03:43:15.816Z,85.30
2018-04-19T03:45:44.792Z,87.80
2018-04-19T03:48:12.991Z,87.70
2018-04-19T03:50:41.217Z,88.90
2018-04-19T03:53:09.908Z,90.00
2018-04-19T03:55:38.400Z,90.80
2018-04-19T03:58:06.602Z,91.00
2018-04-19T04:00:35.164Z,91.40
2018-04-19T04:03:03.359Z,92.30
2018-04-19T04:05:31.913Z,93.10
2018-04-19T04:08:04.566Z,94.00
2018-04-19T04:10:32.768Z,94.60
2018-04-19T04:13:01.248Z,94.00
2018-04-19T04:15:29.447Z,93.40
2018-04-19T04:18:09.359Z,93.80
2018-04-19T04:20:49.220Z,93.60
2018-04-19T04:23:44.976Z,93.60
2018-04-19T04:26:13.962Z,94.20
2018-04-19T04:28:47.460Z,94.20
2018-04-19T04:31:16.751Z,94.40
2018-04-19T04:33:44.948Z,94.10
2018-04-19T04:36:13.156Z,94.20
2018-04-19T04:38:42.307Z,94.50
2018-04-19T04:41:11.279Z,94.40
2018-04-19T04:43:39.940Z,94.40
2018-04-19T04:46:08.139Z,94.50
2018-04-19T04:48:36.351Z,94.80
2018-04-19T04:51:05.222Z,95.00
2018-04-19T04:53:33.516Z,95.10
2018-04-19T04:56:02.584Z,95.60
2018-04-19T04:58:30.792Z,95.60
2018-04-19T05:00:59.089Z,96.00
2018-04-19T05:03:28.087Z,96.00
2018-04-19T05:05:56.287Z,96.40
2018-04-19T05:08:25.840Z,96.60
2018-04-19T05:10:55.042Z,97.10
2018-04-19T05:13:24.013Z,97.30
2018-04-19T05:15:52.231Z,97.30
2018-04-19T05:18:20.452Z,97.40
2018-04-19T05:20:48.668Z,97.60
2018-04-19T05:23:17.116Z,98.20
2018-04-19T05:25:45.625Z,98.10
2018-04-19T05:28:14.678Z,98.40
2018-04-19T05:30:43.101Z,98.30
2018-04-19T05:33:12.160Z,98.20
2018-04-19T05:35:40.382Z,98.10
2018-04-19T05:38:14.908Z,98.10
2018-04-19T05:40:43.568Z,98.00
2018-04-19T05:43:11.971Z,98.40
2018-04-19T05:45:40.941Z,99.10
2018-04-19T05:48:09.492Z,99.00
2018-04-19T05:50:37.782Z,98.60
2018-04-19T05:53:05.987Z,99.20
2018-04-19T05:55:35.223Z,98.40
2018-04-19T05:58:03.810Z,98.40
2018-04-19T06:00:32.680Z,97.40
2018-04-19T06:03:00.883Z,96.80
2018-04-19T06:05:29.469Z,96.50
2018-04-19T06:08:04.376Z,96.60
2018-04-19T06:10:32.580Z,96.40
2018-04-19T06:13:00.784Z,96.90
2018-04-19T06:15:29.004Z,97.20
2018-04-19T06:17:57.217Z,97.20
2018-04-19T06:20:31.571Z,96.90
2018-04-19T06:23:00.965Z,96.80
2018-04-19T06:25:29.160Z,96.80
2018-04-19T06:27:58.568Z,96.10
2018-04-19T06:30:28.008Z,95.50
2018-04-19T06:32:56.224Z,95.50
2018-04-19T06:35:24.428Z,95.10
2018-04-19T06:37:52.647Z,93.70
2018-04-19T06:40:20.915Z,93.40
2018-04-19T06:42:49.532Z,93.40
2018-04-19T06:45:17.813Z,93.10
2018-04-19T06:47:46.012Z,92.70
2018-04-19T06:50:14.976Z,91.50
2018-04-19T06:52:43.199Z,91.40
2018-04-19T06:55:13.095Z,90.90
2018-04-19T06:57:42.059Z,88.00
2018-04-19T07:00:10.652Z,88.00
2018-04-19T07:02:38.856Z,87.50
2018-04-19T07:05:08.337Z,86.70
2018-04-19T07:07:36.536Z,86.70
2018-04-19T07:10:05.464Z,84.30
2018-04-19T07:12:33.671Z,82.90
2018-04-19T07:15:01.863Z,80.60
2018-04-19T07:17:31.071Z,82.60
2018-04-19T07:19:59.275Z,82.40
2018-04-19T07:22:28.116Z,82.20
2018-04-19T07:24:56.313Z,81.60
2018-04-19T07:27:25.380Z,80.00
2018-04-19T07:29:53.769Z,79.80
2018-04-19T07:32:22.056Z,81.20
2018-04-19T07:34:50.543Z,79.20
2018-04-19T07:37:19.514Z,76.20
2018-04-19T07:39:48.312Z,76.10
2018-04-19T07:42:19.691Z,75.20
2018-04-19T07:44:48.658Z,71.50
2018-04-19T07:47:16.859Z,71.50
2018-04-19T07:49:46.036Z,68.60
2018-04-19T07:52:14.231Z,68.50
2018-04-19T07:54:43.097Z,70.90
2018-04-19T07:57:11.977Z,70.90
2018-04-19T07:59:40.236Z,72.10
2018-04-19T08:02:08.532Z,71.20
2018-04-19T08:04:36.811Z,70.00
2018-04-19T08:07:05.018Z,64.70
2018-04-19T08:09:33.462Z,60.90
2018-04-19T08:12:02.070Z,58.20
2018-04-19T08:14:30.266Z,58.70
2018-04-19T08:16:59.242Z,54.50
2018-04-19T08:19:27.447Z,54.50
2018-04-19T08:21:57.828Z,53.70
2018-04-19T08:24:26.069Z,53.50
2018-04-19T08:26:55.060Z,51.10
2018-04-19T08:29:23.688Z,52.50
2018-04-19T08:31:51.896Z,49.60
2018-04-19T08:34:20.866Z,48.80
2018-04-19T08:36:49.254Z,48.80
2018-04-19T08:39:19.279Z,47.00
2018-04-19T08:44:22.696Z,47.70
2018-04-19T08:46:50.899Z,48.00
2018-04-19T08:49:19.101Z,46.00
2018-04-19T08:51:47.329Z,46.10
2018-04-19T08:54:15.521Z,47.40
2018-04-19T08:56:44.353Z,45.70
2018-04-19T08:59:12.846Z,47.10
2018-04-19T09:01:46.651Z,46.70
2018-04-19T09:04:15.106Z,46.50
2018-04-19T09:06:43.857Z,44.00
2018-04-19T09:09:12.288Z,42.90
2018-04-19T09:11:40.520Z,43.60
2018-04-19T09:14:08.720Z,42.80
2018-04-19T09:16:36.948Z,41.50
2018-04-19T09:19:05.144Z,41.80
2018-04-19T09:21:33.347Z,41.70
2018-04-19T09:24:02.880Z,39.80
2018-04-19T09:26:31.096Z,39.20
2018-04-19T09:28:59.439Z,40.70
2018-04-19T09:31:27.712Z,36.00
2018-04-19T09:33:55.915Z,39.20
2018-04-19T09:36:24.879Z,37.70
2018-04-19T09:38:53.571Z,37.70
2018-04-19T09:41:21.785Z,38.90
2018-04-19T09:43:50.348Z,40.00
2018-04-19T09:46:19.330Z,39.30
2018-04-19T09:48:47.537Z,39.30
2018-04-19T09:51:16.004Z,42.00
2018-04-19T09:53:45.019Z,37.80
2018-04-19T09:56:13.961Z,37.70
2018-04-19T09:58:42.164Z,37.20
2018-04-19T10:01:11.993Z,35.30
2018-04-19T10:03:46.215Z,33.00
2018-04-19T10:06:14.801Z,32.90
2018-04-19T10:08:43.781Z,33.60
2018-04-19T10:11:12.754Z,34.30
2018-04-19T10:13:41.558Z,34.40
2018-04-19T10:16:10.543Z,31.70
2018-04-19T10:18:38.728Z,31.60
2018-04-19T10:21:07.726Z,32.50
2018-04-19T10:23:36.071Z,32.50
2018-04-19T10:26:05.197Z,32.70
2018-04-19T10:28:33.884Z,32.00
2018-04-19T10:31:02.188Z,32.10
2018-04-19T10:33:30.395Z,31.80
2018-04-19T10:35:58.684Z,32.70
2018-04-19T10:38:27.243Z,33.00
2018-04-19T10:40:55.438Z,33.00
2018-04-19T10:43:24.070Z,34.30
2018-04-19T10:45:53.272Z,32.10
2018-04-19T10:48:21.572Z,32.10
2018-04-19T10:50:49.787Z,30.80
2018-04-19T10:53:17.984Z,32.90
2018-04-19T10:55:46.555Z,32.00
2018-04-19T10:58:14.977Z,32.40
2018-04-19T11:00:43.651Z,32.00
2018-04-19T11:03:12.427Z,30.30
2018-04-19T11:05:41.707Z,29.80
2018-04-19T11:08:10.112Z,29.80
2018-04-19T11:10:38.308Z,29.60
2018-04-19T11:13:06.508Z,29.90
2018-04-19T11:15:34.723Z,29.70
2018-04-19T11:18:02.934Z,29.00
2018-04-19T11:20:31.139Z,29.30
2018-04-19T11:22:59.851Z,29.30
2018-04-19T11:25:28.058Z,27.60
2018-04-19T11:27:56.637Z,27.90
2018-04-19T11:30:25.907Z,25.80
2018-04-19T11:32:54.399Z,26.10
2018-04-19T11:35:22.606Z,26.80
2018-04-19T11:37:50.795Z,27.40
2018-04-19T11:40:19.667Z,28.10
2018-04-19T11:42:48.942Z,27.80
2018-04-19T11:45:17.144Z,27.80
2018-04-19T11:47:46.111Z,28.50
2018-04-19T11:50:14.486Z,28.50
2018-04-19T11:52:44.092Z,27.70
2018-04-19T11:55:14.146Z,27.20
2018-04-19T11:57:42.351Z,27.60
2018-04-19T12:00:10.600Z,26.50
2018-04-19T12:02:39.962Z,27.30
2018-04-19T12:05:08.275Z,27.20
2018-04-19T12:07:37.261Z,25.30
2018-04-19T12:10:05.844Z,25.30
2018-04-19T12:12:34.817Z,25.50
2018-04-19T12:15:03.016Z,25.50
2018-04-19T12:17:31.995Z,24.90
2018-04-19T12:20:00.208Z,24.90
2018-04-19T12:22:28.848Z,24.70
2018-04-19T12:24:57.051Z,25.00
2018-04-19T12:27:25.610Z,26.40
2018-04-19T12:29:53.877Z,25.90
2018-04-19T12:32:22.164Z,25.00
2018-04-19T12:34:50.370Z,26.40
2018-04-19T12:37:18.569Z,26.80
2018-04-19T12:39:46.991Z,26.90
2018-04-19T12:42:15.917Z,27.10
2018-04-19T12:44:46.436Z,26.70
2018-04-19T12:47:15.408Z,26.10
2018-04-19T12:49:43.828Z,26.10
2018-04-19T12:52:12.036Z,27.20
2018-04-19T12:54:40.236Z,26.60
2018-04-19T12:57:08.798Z,27.20
2018-04-19T12:59:37.961Z,25.60
2018-04-19T13:02:06.451Z,26.30
2018-04-19T13:04:35.080Z,25.70
2018-04-19T13:07:03.285Z,24.70
2018-04-19T13:09:31.887Z,24.90
2018-04-19T13:12:00.092Z,24.40
2018-04-19T13:14:28.308Z,24.60
2018-04-19T13:16:56.515Z,24.30
2018-04-19T13:19:24.726Z,24.80
2018-04-19T13:22:03.503Z,25.90
2018-04-19T13:24:32.474Z,24.60
2018-04-19T13:27:01.052Z,24.60
2018-04-19T13:29:29.759Z,24.80
2018-04-19T13:31:57.951Z,23.40
2018-04-19T13:34:26.920Z,23.10
2018-04-19T13:36:55.408Z,23.10
2018-04-19T13:39:24.653Z,22.50
2018-04-19T13:41:52.844Z,22.50
2018-04-19T13:44:21.254Z,22.60
2018-04-19T13:46:49.452Z,22.40
2018-04-19T13:49:17.665Z,22.00
2018-04-19T13:51:45.868Z,22.80
2018-04-19T13:54:14.840Z,22.40
2018-04-19T13:56:43.379Z,21.30
2018-04-19T13:59:13.189Z,22.10
2018-04-19T14:01:43.099Z,23.80
2018-04-19T14:04:12.811Z,23.10
2018-04-19T14:06:41.776Z,23.30
2018-04-19T14:09:10.303Z,23.10
2018-04-19T14:11:39.268Z,26.20
2018-04-19T14:14:07.474Z,26.10
2018-04-19T14:16:35.682Z,25.40
2018-04-19T14:19:03.913Z,25.90
2018-04-19T14:21:32.097Z,24.70
2018-04-19T14:24:00.679Z,23.80
2018-04-19T14:26:29.728Z,23.00
2018-04-19T14:28:58.434Z,23.00
2018-04-19T14:31:26.639Z,23.50
2018-04-19T14:33:54.836Z,23.20
2018-04-19T14:36:23.057Z,23.10
2018-04-19T14:38:51.540Z,23.90
2018-04-19T14:41:19.751Z,23.40
2018-04-19T14:43:48.282Z,23.60
2018-04-19T14:46:16.860Z,23.30
2018-04-19T14:48:45.273Z,23.70
2018-04-19T14:51:13.491Z,23.20
2018-04-19T14:53:41.690Z,23.70
2018-04-19T14:56:10.624Z,25.20
2018-04-19T14:58:39.596Z,24.70
2018-04-19T15:01:08.188Z,24.70
2018-04-19T15:03:36.869Z,23.90
2018-04-19T15:06:05.067Z,24.10
2018-04-19T15:08:39.470Z,23.90
2018-04-19T15:11:07.680Z,23.90
2018-04-19T15:13:35.879Z,23.90
2018-04-19T15:16:04.097Z,24.00
2018-04-19T15:18:32.297Z,23.70
2018-04-19T15:21:01.264Z,23.50
2018-04-19T15:23:29.717Z,23.40
2018-04-19T15:25:57.925Z,23.10
2018-04-19T15:28:26.395Z,22.80
2018-04-19T15:30:54.879Z,23.40
2018-04-19T15:33:23.331Z,22.70
2018-04-19T15:35:51.662Z,22.20
2018-04-19T15:38:20.480Z,23.00
2018-04-19T15:40:49.088Z,22.20
2018-04-19T15:43:17.927Z,22.60
2018-04-19T15:45:46.900Z,22.40
2018-04-19T15:48:15.099Z,22.40
2018-04-19T15:50:44.090Z,23.00
2018-04-19T15:53:12.599Z,23.00
2018-04-19T15:55:41.311Z,23.60
2018-04-19T15:58:09.970Z,23.50
2018-04-19T16:00:39.474Z,22.80
2018-04-19T16:03:09.252Z,24.50
2018-04-19T16:05:38.058Z,24.50
2018-04-19T16:08:08.176Z,24.70
2018-04-19T16:10:37.702Z,24.10
2018-04-19T16:13:06.657Z,26.50
2018-04-19T16:15:35.147Z,26.50
2018-04-19T16:18:03.351Z,25.30
2018-04-19T16:20:31.543Z,25.20
2018-04-19T16:23:01.099Z,25.90
2018-04-19T16:25:29.681Z,25.90
2018-04-19T16:27:59.654Z,26.80
2018-04-19T16:30:27.957Z,26.80
2018-04-19T16:32:56.973Z,27.30
2018-04-19T16:35:26.378Z,29.10
2018-04-19T16:37:54.587Z,28.40
2018-04-19T16:40:23.144Z,28.20
2018-04-19T16:42:52.248Z,29.70
2018-04-19T16:45:21.228Z,30.40
2018-04-19T16:47:49.435Z,30.40
2018-04-19T16:50:18.407Z,29.30
2018-04-19T16:52:46.952Z,29.30
2018-04-19T16:55:15.864Z,29.60
2018-04-19T16:57:44.823Z,29.50
2018-04-19T17:00:19.575Z,29.50
2018-04-19T17:02:48.540Z,31.80
2018-04-19T17:05:16.970Z,31.70
2018-04-19T17:07:45.172Z,30.60
2018-04-19T17:10:13.718Z,30.30
2018-04-19T17:12:41.938Z,30.00
2018-04-19T17:15:10.132Z,30.80
2018-04-19T17:17:38.344Z,31.70
2018-04-19T17:20:07.118Z,31.90
2018-04-19T17:22:35.802Z,32.70
2018-04-19T17:25:04.735Z,33.50
2018-04-19T17:27:33.774Z,32.80
2018-04-19T17:30:02.090Z,32.60
2018-04-19T17:32:30.361Z,32.70
2018-04-19T17:34:58.535Z,33.00
2018-04-19T17:37:26.779Z,31.20
2018-04-19T17:39:55.206Z,32.50
2018-04-19T17:42:25.141Z,31.40
2018-04-19T17:44:54.112Z,32.50
2018-04-19T17:47:22.309Z,31.80
2018-04-19T17:49:51.314Z,32.00
2018-04-19T17:52:20.279Z,32.40
2018-04-19T17:54:48.477Z,32.30
2018-04-19T17:57:17.640Z,32.90
2018-04-19T17:59:46.543Z,33.60
2018-04-19T18:02:15.989Z,33.50
2018-04-19T18:04:44.584Z,33.70
2018-04-19T18:07:12.784Z,33.90
2018-04-19T18:09:41.496Z,34.20
2018-04-19T18:12:09.703Z,35.00
2018-04-19T18:14:38.659Z,35.20
2018-04-19T18:17:07.275Z,35.20
2018-04-19T18:19:36.460Z,35.70
2018-04-19T18:22:10.244Z,35.60
2018-04-19T18:24:38.451Z,36.10
2018-04-19T18:27:07.192Z,36.70
2018-04-19T18:29:35.840Z,36.00
2018-04-19T18:32:04.031Z,36.40
2018-04-19T18:34:32.266Z,36.70
2018-04-19T18:37:05.433Z,36.80
2018-04-19T18:39:34.034Z,36.80
2018-04-19T18:42:02.244Z,37.20
2018-04-19T18:44:31.420Z,37.70
2018-04-19T18:47:00.389Z,38.20
2018-04-19T18:49:28.603Z,37.80
2018-04-19T18:51:57.572Z,38.00
2018-04-19T18:54:25.798Z,38.00
2018-04-19T18:56:53.987Z,38.00
2018-04-19T18:59:23.144Z,38.30
2018-04-19T19:01:57.860Z,38.90
2018-04-19T19:04:26.348Z,38.80
2018-04-19T19:06:54.599Z,38.80
2018-04-19T19:09:23.321Z,39.50
2018-04-19T19:11:51.526Z,39.30
2018-04-19T19:14:20.384Z,39.70
2018-04-19T19:16:49.662Z,40.20
2018-04-19T19:19:29.633Z,40.10
2018-04-19T19:22:11.644Z,40.40
2018-04-19T19:24:39.840Z,40.20
2018-04-19T19:27:09.179Z,40.60
2018-04-19T19:29:37.424Z,40.90
2018-04-19T19:32:05.620Z,40.90
2018-04-19T19:34:33.831Z,40.80
2018-04-19T19:37:02.280Z,41.70
2018-04-19T19:39:31.203Z,41.60
2018-04-19T19:41:59.684Z,41.40
2018-04-19T19:44:28.563Z,41.50
2018-04-19T19:46:56.934Z,41.70
2018-04-19T19:49:25.103Z,41.70
2018-04-19T19:51:53.325Z,41.80
2018-04-19T19:54:23.460Z,42.40
2018-04-19T19:56:51.660Z,42.40
2018-04-19T19:59:20.277Z,42.50
2018-04-19T20:01:48.880Z,42.70
2018-04-19T20:04:18.519Z,43.50
2018-04-19T20:06:46.716Z,43.50
2018-04-19T20:09:16.268Z,43.60
2018-04-19T20:11:45.343Z,44.40
2018-04-19T20:14:13.569Z,44.40
2018-04-19T20:16:41.759Z,44.50
2018-04-19T20:19:10.318Z,45.10
2018-04-19T20:21:39.279Z,44.80
2018-04-19T20:24:08.109Z,44.80
2018-04-19T20:26:42.723Z,45.30
2018-04-19T20:29:12.679Z,45.80
2018-04-19T20:31:40.933Z,45.80
2018-04-19T20:34:09.153Z,45.60
2018-04-19T20:36:37.673Z,46.10
2018-04-19T20:39:07.145Z,46.20
2018-04-19T20:41:35.340Z,46.20
2018-04-19T20:44:05.748Z,46.50
2018-04-19T20:46:33.963Z,46.50
2018-04-19T20:49:02.179Z,46.70
2018-04-19T20:51:30.615Z,47.20
2018-04-19T20:53:59.581Z,47.50
2018-04-19T20:56:27.790Z,47.40
2018-04-19T20:59:00.332Z,47.40
2018-04-19T21:01:28.545Z,47.30
2018-04-19T21:03:57.239Z,47.70
2018-04-19T21:06:25.668Z,48.00
2018-04-19T21:08:54.087Z,48.60
2018-04-19T21:11:22.288Z,48.80
2018-04-19T21:13:50.488Z,49.40
2018-04-19T21:16:18.985Z,49.40
2018-04-19T21:18:47.179Z,49.80
2018-04-19T21:21:15.759Z,50.30
2018-04-19T21:23:44.225Z,50.30
2018-04-19T21:26:12.433Z,50.40
2018-04-19T21:28:41.139Z,50.70
2018-04-19T21:31:09.475Z,51.20
2018-04-19T21:33:37.693Z,51.60
2018-04-19T21:36:05.893Z,51.50
2018-04-19T21:38:37.363Z,51.70
2018-04-19T21:41:05.555Z,51.50
2018-04-19T21:43:33.822Z,51.30
2018-04-19T21:46:02.020Z,51.80
2018-04-19T21:48:30.987Z,52.50
2018-04-19T21:50:59.505Z,52.40
2018-04-19T21:53:28.481Z,53.30
2018-04-19T21:55:56.912Z,53.30
2018-04-19T21:58:25.477Z,53.30
2018-04-19T22:00:53.936Z,53.20
2018-04-19T22:03:22.902Z,53.80
2018-04-19T22:05:51.488Z,53.80
2018-04-19T22:08:20.068Z,53.50
2018-04-19T22:10:48.272Z,53.70
2018-04-19T22:13:16.471Z,53.90
2018-04-19T22:15:44.832Z,54.00
2018-04-19T22:18:13.800Z,54.20
2018-04-19T22:20:42.003Z,54.30
2018-04-19T22:23:11.484Z,54.90
2018-04-19T22:25:39.683Z,54.90
2018-04-19T22:28:08.240Z,55.40
2018-04-19T22:30:36.940Z,55.90
2018-04-19T22:33:05.147Z,56.00
2018-04-19T22:35:33.348Z,56.30
2018-04-19T22:38:02.178Z,57.10
2018-04-19T22:40:30.788Z,56.70
2018-04-19T22:42:59.351Z,56.90
2018-04-19T22:45:27.557Z,57.30
2018-04-19T22:47:55.864Z,58.00
2018-04-19T22:50:24.095Z,57.90
2018-04-19T22:52:52.296Z,58.40
2018-04-19T22:55:20.491Z,58.80
2018-04-19T22:57:49.471Z,58.80
2018-04-19T23:00:17.726Z,59.20
2018-04-19T23:02:46.699Z,59.40
2018-04-19T23:05:15.268Z,59.30
2018-04-19T23:07:43.474Z,59.30
2018-04-19T23:10:12.500Z,60.20
2018-04-19T23:12:40.695Z,60.10
2018-04-19T23:15:09.626Z,61.30
2018-04-19T23:17:38.634Z,61.50
2018-04-19T23:20:06.796Z,61.50
2018-04-19T23:22:36.096Z,61.50
2018-04-19T23:25:05.081Z,62.60
2018-04-19T23:27:34.165Z,62.60
2018-04-19T23:30:03.056Z,63.00
2018-04-19T23:32:31.433Z,63.50
2018-04-19T23:34:59.589Z,63.70
2018-04-19T23:37:27.807Z,63.40
2018-04-19T23:39:56.368Z,63.80
2018-04-19T23:42:24.572Z,65.00
2018-04-19T23:44:53.244Z,65.20
2018-04-19T23:47:21.445Z,65.70
2018-04-19T23:49:50.416Z,67.10
2018-04-19T23:52:18.716Z,67.00
2018-04-19T23:54:46.911Z,67.80
2018-04-19T23:57:15.123Z,68.30
2018-04-19T23:59:43.628Z,69.50
